Terminal Aerodrome Forecast
Issued by NWS Corpus Christi, TX

Home | Current Version | Previous Version | Text Only | Print | Product List | Glossary On
Versions: 1 2 3 4 5 6 7 8 9 10 11 12
000
FTUS44 KCRP 292329
TAFCRP
TAF
KCRP 292329Z 3000/3024 12015G20KT P6SM FEW050 SCT250
     FM300100 15009KT P6SM SCT250
     FM300800 VRB03KT P6SM FEW025
      TEMPO 3010/3014 BKN025
     FM301500 VRB05KT P6SM BKN035
     FM301900 12012G19KT P6SM SCT040=

USA.gov is the U.S. government's official web portal to all federal, state and local government web resources and services.